sensor_id;sensor_type;location;lat;lon;timestamp;pressure;altitude;pressure_sealevel;temperature;humidity
65190;BME280;51777;53.570;9.984;2023-05-23T00:01:29;101046.63;;;17.49;100.00
65190;BME280;51777;53.570;9.984;2023-05-23T00:03:57;101050.13;;;17.42;100.00
65190;BME280;51777;53.570;9.984;2023-05-23T00:06:23;101044.16;;;17.48;100.00
65190;BME280;51777;53.570;9.984;2023-05-23T00:08:48;101034.81;;;17.39;100.00
65190;BME280;51777;53.570;9.984;2023-05-23T00:11:14;101032.41;;;17.37;100.00
65190;BME280;51777;53.570;9.984;2023-05-23T00:13:40;101025.97;;;17.40;100.00
65190;BME280;51777;53.570;9.984;2023-05-23T00:16:07;101024.91;;;17.34;100.00
65190;BME280;51777;53.570;9.984;2023-05-23T00:18:37;101025.00;;;17.41;100.00
65190;BME280;51777;53.570;9.984;2023-05-23T00:21:02;101027.41;;;17.42;100.00
65190;BME280;51777;53.570;9.984;2023-05-23T00:23:28;101021.56;;;17.40;100.00
65190;BME280;51777;53.570;9.984;2023-05-23T00:25:54;101018.50;;;17.37;100.00
65190;BME280;51777;53.570;9.984;2023-05-23T00:28:20;101015.66;;;17.17;100.00
65190;BME280;51777;53.570;9.984;2023-05-23T00:30:46;101020.31;;;17.07;100.00
65190;BME280;51777;53.570;9.984;2023-05-23T00:33:13;101014.28;;;17.06;100.00
65190;BME280;51777;53.570;9.984;2023-05-23T00:35:42;101015.91;;;17.07;100.00
65190;BME280;51777;53.570;9.984;2023-05-23T00:38:07;101007.88;;;17.09;100.00
65190;BME280;51777;53.570;9.984;2023-05-23T00:40:33;101014.66;;;17.03;100.00
65190;BME280;51777;53.570;9.984;2023-05-23T00:42:59;101008.28;;;16.91;100.00
65190;BME280;51777;53.570;9.984;2023-05-23T00:45:25;101003.50;;;16.80;100.00
65190;BME280;51777;53.570;9.984;2023-05-23T00:47:51;101001.56;;;16.73;100.00
65190;BME280;51777;53.570;9.984;2023-05-23T00:50:17;101002.38;;;16.74;100.00
65190;BME280;51777;53.570;9.984;2023-05-23T00:52:44;101001.88;;;16.79;100.00
65190;BME280;51777;53.570;9.984;2023-05-23T00:55:12;100995.72;;;16.86;100.00
65190;BME280;51777;53.570;9.984;2023-05-23T00:57:39;100999.34;;;16.85;100.00
65190;BME280;51777;53.570;9.984;2023-05-23T01:00:11;100995.09;;;16.84;100.00
65190;BME280;51777;53.570;9.984;2023-05-23T01:02:41;100993.41;;;16.91;100.00
65190;BME280;51777;53.570;9.984;2023-05-23T01:05:13;100987.09;;;17.00;100.00
65190;BME280;51777;53.570;9.984;2023-05-23T01:07:45;100981.75;;;17.09;100.00
65190;BME280;51777;53.570;9.984;2023-05-23T01:10:12;100980.88;;;17.01;100.00
65190;BME280;51777;53.570;9.984;2023-05-23T01:13:16;100978.63;;;16.98;100.00
65190;BME280;51777;53.570;9.984;2023-05-23T01:16:01;100982.69;;;17.01;100.00
65190;BME280;51777;53.570;9.984;2023-05-23T01:18:36;100987.78;;;17.09;100.00
65190;BME280;51777;53.570;9.984;2023-05-23T01:21:10;100985.28;;;17.16;100.00
65190;BME280;51777;53.570;9.984;2023-05-23T01:27:00;100977.44;;;17.16;100.00
65190;BME280;51777;53.570;9.984;2023-05-23T01:29:44;100975.53;;;17.24;100.00
65190;BME280;51777;53.570;9.984;2023-05-23T01:32:11;100970.22;;;17.18;100.00
65190;BME280;51777;53.570;9.984;2023-05-23T01:34:38;100972.84;;;17.18;100.00
65190;BME280;51777;53.570;9.984;2023-05-23T01:37:07;100974.75;;;17.24;100.00
65190;BME280;51777;53.570;9.984;2023-05-23T01:39:34;100970.75;;;17.28;100.00
65190;BME280;51777;53.570;9.984;2023-05-23T01:41:59;100971.13;;;17.25;100.00
65190;BME280;51777;53.570;9.984;2023-05-23T01:44:25;100972.75;;;17.11;100.00
65190;BME280;51777;53.570;9.984;2023-05-23T01:46:50;100982.13;;;17.06;100.00
65190;BME280;51777;53.570;9.984;2023-05-23T01:49:16;100974.75;;;16.94;100.00
65190;BME280;51777;53.570;9.984;2023-05-23T01:51:42;100984.75;;;16.91;100.00
65190;BME280;51777;53.570;9.984;2023-05-23T01:54:08;100989.19;;;16.76;100.00
65190;BME280;51777;53.570;9.984;2023-05-23T01:56:34;100979.19;;;16.41;100.00
65190;BME280;51777;53.570;9.984;2023-05-23T01:59:00;100982.03;;;16.17;100.00
65190;BME280;51777;53.570;9.984;2023-05-23T02:01:26;100980.06;;;15.96;100.00
65190;BME280;51777;53.570;9.984;2023-05-23T02:03:52;100981.63;;;15.82;100.00
65190;BME280;51777;53.570;9.984;2023-05-23T02:06:17;100980.25;;;15.95;100.00
65190;BME280;51777;53.570;9.984;2023-05-23T02:08:42;100978.97;;;15.91;100.00
65190;BME280;51777;53.570;9.984;2023-05-23T02:11:08;100976.03;;;15.94;100.00
65190;BME280;51777;53.570;9.984;2023-05-23T02:13:34;100982.97;;;15.78;100.00
65190;BME280;51777;53.570;9.984;2023-05-23T02:16:00;100988.06;;;15.72;100.00
65190;BME280;51777;53.570;9.984;2023-05-23T02:18:25;100986.56;;;15.46;100.00
65190;BME280;51777;53.570;9.984;2023-05-23T02:20:53;100988.09;;;15.33;100.00
65190;BME280;51777;53.570;9.984;2023-05-23T02:23:20;100986.13;;;15.35;100.00
65190;BME280;51777;53.570;9.984;2023-05-23T02:25:45;100987.28;;;15.32;100.00
65190;BME280;51777;53.570;9.984;2023-05-23T02:28:11;100993.59;;;15.38;100.00
65190;BME280;51777;53.570;9.984;2023-05-23T02:30:37;100987.28;;;15.32;100.00
65190;BME280;51777;53.570;9.984;2023-05-23T02:33:06;100997.03;;;15.38;100.00
65190;BME280;51777;53.570;9.984;2023-05-23T02:35:32;100992.50;;;15.32;100.00
65190;BME280;51777;53.570;9.984;2023-05-23T02:37:58;100997.53;;;15.34;100.00
65190;BME280;51777;53.570;9.984;2023-05-23T02:40:23;100995.56;;;15.36;100.00
65190;BME280;51777;53.570;9.984;2023-05-23T02:42:49;101001.41;;;15.38;100.00
65190;BME280;51777;53.570;9.984;2023-05-23T02:45:16;100990.09;;;15.22;100.00
65190;BME280;51777;53.570;9.984;2023-05-23T02:47:41;100989.78;;;15.17;100.00
65190;BME280;51777;53.570;9.984;2023-05-23T02:50:07;100989.88;;;15.01;100.00
65190;BME280;51777;53.570;9.984;2023-05-23T02:52:33;100994.53;;;15.14;100.00
65190;BME280;51777;53.570;9.984;2023-05-23T02:54:58;100988.66;;;15.12;100.00
65190;BME280;51777;53.570;9.984;2023-05-23T02:57:24;100990.00;;;14.99;100.00
65190;BME280;51777;53.570;9.984;2023-05-23T02:59:50;100986.75;;;14.97;100.00
65190;BME280;51777;53.570;9.984;2023-05-23T03:02:15;100992.13;;;15.04;100.00
65190;BME280;51777;53.570;9.984;2023-05-23T03:04:40;100988.81;;;15.10;100.00
65190;BME280;51777;53.570;9.984;2023-05-23T03:07:06;100987.56;;;14.98;100.00
65190;BME280;51777;53.570;9.984;2023-05-23T03:09:32;100990.97;;;15.07;100.00
65190;BME280;51777;53.570;9.984;2023-05-23T03:11:57;100990.34;;;14.96;100.00
65190;BME280;51777;53.570;9.984;2023-05-23T03:14:23;100994.56;;;14.97;100.00
65190;BME280;51777;53.570;9.984;2023-05-23T03:16:48;100994.09;;;15.02;100.00
65190;BME280;51777;53.570;9.984;2023-05-23T03:19:14;100987.22;;;15.09;100.00
65190;BME280;51777;53.570;9.984;2023-05-23T03:21:39;100989.91;;;15.24;100.00
65190;BME280;51777;53.570;9.984;2023-05-23T03:24:05;100990.09;;;15.22;100.00
65190;BME280;51777;53.570;9.984;2023-05-23T03:26:30;100987.81;;;15.19;100.00
65190;BME280;51777;53.570;9.984;2023-05-23T03:28:56;100985.50;;;15.24;100.00
65190;BME280;51777;53.570;9.984;2023-05-23T03:31:21;100990.06;;;15.31;100.00
65190;BME280;51777;53.570;9.984;2023-05-23T03:33:47;100987.00;;;15.27;100.00
65190;BME280;51777;53.570;9.984;2023-05-23T03:36:12;100992.84;;;15.21;100.00
65190;BME280;51777;53.570;9.984;2023-05-23T03:38:38;100993.66;;;15.21;100.00
65190;BME280;51777;53.570;9.984;2023-05-23T03:41:03;100993.06;;;15.11;100.00
65190;BME280;51777;53.570;9.984;2023-05-23T03:43:29;100982.16;;;15.08;100.00
65190;BME280;51777;53.570;9.984;2023-05-23T03:45:54;100993.28;;;14.93;100.00
65190;BME280;51777;53.570;9.984;2023-05-23T03:48:19;100989.88;;;15.01;100.00
65190;BME280;51777;53.570;9.984;2023-05-23T03:50:45;100987.53;;;15.14;100.00
65190;BME280;51777;53.570;9.984;2023-05-23T03:53:10;100990.13;;;15.14;100.00
65190;BME280;51777;53.570;9.984;2023-05-23T03:55:37;100984.13;;;15.06;100.00
65190;BME280;51777;53.570;9.984;2023-05-23T03:58:03;100984.97;;;14.98;100.00
65190;BME280;51777;53.570;9.984;2023-05-23T04:00:28;100977.13;;;15.06;100.00
65190;BME280;51777;53.570;9.984;2023-05-23T04:02:55;100984.78;;;15.08;100.00
65190;BME280;51777;53.570;9.984;2023-05-23T04:05:21;100985.59;;;15.08;100.00
65190;BME280;51777;53.570;9.984;2023-05-23T04:07:46;100980.25;;;15.02;100.00
65190;BME280;51777;53.570;9.984;2023-05-23T04:10:12;100993.13;;;14.95;100.00
65190;BME280;51777;53.570;9.984;2023-05-23T04:12:37;100994.63;;;14.89;100.00
65190;BME280;51777;53.570;9.984;2023-05-23T04:15:06;100996.88;;;14.84;100.00
65190;BME280;51777;53.570;9.984;2023-05-23T04:17:31;100997.41;;;14.72;100.00
65190;BME280;51777;53.570;9.984;2023-05-23T04:19:57;100996.13;;;14.67;100.00
65190;BME280;51777;53.570;9.984;2023-05-23T04:22:22;100998.06;;;14.74;100.00
65190;BME280;51777;53.570;9.984;2023-05-23T04:24:48;101001.94;;;14.86;100.00
65190;BME280;51777;53.570;9.984;2023-05-23T04:27:13;101008.75;;;14.87;100.00
65190;BME280;51777;53.570;9.984;2023-05-23T04:29:39;101004.41;;;14.79;100.00
65190;BME280;51777;53.570;9.984;2023-05-23T04:32:05;101004.56;;;14.69;100.00
65190;BME280;51777;53.570;9.984;2023-05-23T04:34:31;101012.22;;;14.71;100.00
65190;BME280;51777;53.570;9.984;2023-05-23T04:37:00;101008.97;;;14.69;100.00
65190;BME280;51777;53.570;9.984;2023-05-23T04:39:29;101012.88;;;14.65;100.00
65190;BME280;51777;53.570;9.984;2023-05-23T04:41:54;101017.25;;;14.73;100.00
65190;BME280;51777;53.570;9.984;2023-05-23T04:44:21;101019.50;;;14.76;100.00
65190;BME280;51777;53.570;9.984;2023-05-23T04:46:46;101015.28;;;14.75;100.00
65190;BME280;51777;53.570;9.984;2023-05-23T04:49:12;101013.19;;;14.70;100.00
65190;BME280;51777;53.570;9.984;2023-05-23T04:51:38;101012.69;;;14.75;100.00
65190;BME280;51777;53.570;9.984;2023-05-23T04:54:04;101019.84;;;14.81;100.00
65190;BME280;51777;53.570;9.984;2023-05-23T04:56:29;101016.25;;;14.82;100.00
65190;BME280;51777;53.570;9.984;2023-05-23T04:58:55;101015.13;;;14.84;100.00
65190;BME280;51777;53.570;9.984;2023-05-23T05:01:21;101019.50;;;14.92;100.00
65190;BME280;51777;53.570;9.984;2023-05-23T05:03:50;101021.59;;;14.96;100.00
65190;BME280;51777;53.570;9.984;2023-05-23T05:06:15;101024.84;;;14.98;100.00
65190;BME280;51777;53.570;9.984;2023-05-23T05:08:41;101028.25;;;14.99;100.00
65190;BME280;51777;53.570;9.984;2023-05-23T05:11:08;101016.91;;;14.92;100.00
65190;BME280;51777;53.570;9.984;2023-05-23T05:13:34;101019.50;;;14.84;100.00
65190;BME280;51777;53.570;9.984;2023-05-23T05:15:59;101025.19;;;14.87;100.00
65190;BME280;51777;53.570;9.984;2023-05-23T05:18:25;101014.94;;;14.94;100.00
65190;BME280;51777;53.570;9.984;2023-05-23T05:20:51;101027.28;;;15.00;100.00
65190;BME280;51777;53.570;9.984;2023-05-23T05:23:17;101027.13;;;15.02;100.00
65190;BME280;51777;53.570;9.984;2023-05-23T05:25:42;101028.09;;;15.01;100.00
65190;BME280;51777;53.570;9.984;2023-05-23T05:28:08;101025.00;;;15.05;100.00
65190;BME280;51777;53.570;9.984;2023-05-23T05:30:33;101020.91;;;15.11;100.00
65190;BME280;51777;53.570;9.984;2023-05-23T05:33:03;101024.13;;;15.13;100.00
65190;BME280;51777;53.570;9.984;2023-05-23T05:35:33;101022.84;;;15.09;100.00
65190;BME280;51777;53.570;9.984;2023-05-23T05:37:59;101016.66;;;15.10;100.00
65190;BME280;51777;53.570;9.984;2023-05-23T05:40:25;101024.63;;;15.16;100.00
65190;BME280;51777;53.570;9.984;2023-05-23T05:42:51;101026.91;;;15.11;100.00
65190;BME280;51777;53.570;9.984;2023-05-23T05:45:16;101023.00;;;15.15;100.00
65190;BME280;51777;53.570;9.984;2023-05-23T05:47:42;101032.09;;;15.19;100.00
65190;BME280;51777;53.570;9.984;2023-05-23T05:50:07;101028.00;;;15.25;100.00
65190;BME280;51777;53.570;9.984;2023-05-23T05:52:34;101029.78;;;15.24;100.00
65190;BME280;51777;53.570;9.984;2023-05-23T05:55:04;101033.22;;;15.25;100.00
65190;BME280;51777;53.570;9.984;2023-05-23T05:57:31;101040.38;;;15.23;100.00
65190;BME280;51777;53.570;9.984;2023-05-23T05:59:56;101035.69;;;15.26;100.00
65190;BME280;51777;53.570;9.984;2023-05-23T06:02:21;101038.28;;;15.26;100.00
65190;BME280;51777;53.570;9.984;2023-05-23T06:04:47;101040.66;;;15.36;100.00
65190;BME280;51777;53.570;9.984;2023-05-23T06:07:12;101041.97;;;15.40;100.00
65190;BME280;51777;53.570;9.984;2023-05-23T06:09:37;101046.66;;;15.45;100.00
65190;BME280;51777;53.570;9.984;2023-05-23T06:12:03;101040.81;;;15.43;100.00
65190;BME280;51777;53.570;9.984;2023-05-23T06:14:28;101048.16;;;15.39;100.00
65190;BME280;51777;53.570;9.984;2023-05-23T06:16:54;101048.31;;;15.38;100.00
65190;BME280;51777;53.570;9.984;2023-05-23T06:19:19;101056.66;;;15.25;100.00
65190;BME280;51777;53.570;9.984;2023-05-23T06:21:44;101050.97;;;15.30;100.00
65190;BME280;51777;53.570;9.984;2023-05-23T06:24:10;101055.66;;;15.34;100.00
65190;BME280;51777;53.570;9.984;2023-05-23T06:26:35;101058.13;;;15.27;100.00
65190;BME280;51777;53.570;9.984;2023-05-23T06:29:02;101058.44;;;15.24;100.00
65190;BME280;51777;53.570;9.984;2023-05-23T06:31:27;101064.47;;;15.25;100.00
65190;BME280;51777;53.570;9.984;2023-05-23T06:33:52;101059.16;;;15.10;100.00
65190;BME280;51777;53.570;9.984;2023-05-23T06:36:18;101063.06;;;15.14;100.00
65190;BME280;51777;53.570;9.984;2023-05-23T06:38:44;101060.78;;;15.11;100.00
65190;BME280;51777;53.570;9.984;2023-05-23T06:41:09;101062.09;;;15.15;100.00
65190;BME280;51777;53.570;9.984;2023-05-23T06:43:34;101070.88;;;15.06;100.00
65190;BME280;51777;53.570;9.984;2023-05-23T06:46:00;101066.97;;;15.10;100.00
65190;BME280;51777;53.570;9.984;2023-05-23T06:48:25;101071.53;;;15.16;100.00
65190;BME280;51777;53.570;9.984;2023-05-23T06:50:50;101072.16;;;15.18;100.00
65190;BME280;51777;53.570;9.984;2023-05-23T06:53:16;101074.44;;;15.21;100.00
65190;BME280;51777;53.570;9.984;2023-05-23T06:55:42;101082.75;;;15.17;100.00
65190;BME280;51777;53.570;9.984;2023-05-23T06:58:08;101078.53;;;15.16;100.00
65190;BME280;51777;53.570;9.984;2023-05-23T07:00:33;101071.53;;;15.00;100.00
65190;BME280;51777;53.570;9.984;2023-05-23T07:02:58;101086.66;;;15.13;100.00
65190;BME280;51777;53.570;9.984;2023-05-23T07:05:28;101091.53;;;15.16;100.00
65190;BME280;51777;53.570;9.984;2023-05-23T07:07:54;101081.94;;;15.16;100.00
65190;BME280;51777;53.570;9.984;2023-05-23T07:10:20;101089.13;;;15.14;100.00
65190;BME280;51777;53.570;9.984;2023-05-23T07:12:45;101103.25;;;15.20;100.00
65190;BME280;51777;53.570;9.984;2023-05-23T07:15:11;101099.19;;;15.17;100.00
65190;BME280;51777;53.570;9.984;2023-05-23T07:17:37;101095.59;;;15.18;100.00
65190;BME280;51777;53.570;9.984;2023-05-23T07:20:03;101104.91;;;15.05;100.00
65190;BME280;51777;53.570;9.984;2023-05-23T07:22:29;101110.13;;;14.96;100.00
65190;BME280;51777;53.570;9.984;2023-05-23T07:24:55;101105.38;;;15.00;100.00
65190;BME280;51777;53.570;9.984;2023-05-23T07:27:20;101110.25;;;15.11;100.00
65190;BME280;51777;53.570;9.984;2023-05-23T07:29:46;101117.44;;;15.09;100.00
65190;BME280;51777;53.570;9.984;2023-05-23T07:32:11;101113.50;;;15.21;100.00
65190;BME280;51777;53.570;9.984;2023-05-23T07:34:37;101118.22;;;15.26;100.00
65190;BME280;51777;53.570;9.984;2023-05-23T07:37:02;101125.47;;;15.47;100.00
65190;BME280;51777;53.570;9.984;2023-05-23T07:39:29;101133.66;;;15.36;100.00
65190;BME280;51777;53.570;9.984;2023-05-23T07:41:54;101137.69;;;15.54;100.00
65190;BME280;51777;53.570;9.984;2023-05-23T07:44:20;101141.44;;;15.60;100.00
65190;BME280;51777;53.570;9.984;2023-05-23T07:46:46;101136.28;;;15.83;100.00
65190;BME280;51777;53.570;9.984;2023-05-23T07:49:11;101138.44;;;15.79;100.00
65190;BME280;51777;53.570;9.984;2023-05-23T07:51:36;101157.94;;;15.92;100.00
65190;BME280;51777;53.570;9.984;2023-05-23T07:54:02;101154.63;;;15.98;100.00
65190;BME280;51777;53.570;9.984;2023-05-23T07:56:27;101152.91;;;15.90;100.00
65190;BME280;51777;53.570;9.984;2023-05-23T07:58:53;101158.31;;;15.72;100.00
65190;BME280;51777;53.570;9.984;2023-05-23T08:01:18;101156.91;;;15.53;100.00
65190;BME280;51777;53.570;9.984;2023-05-23T08:03:44;101166.03;;;15.66;100.00
65190;BME280;51777;53.570;9.984;2023-05-23T08:06:09;101164.88;;;15.68;100.00
65190;BME280;51777;53.570;9.984;2023-05-23T08:08:35;101165.97;;;15.74;100.00
65190;BME280;51777;53.570;9.984;2023-05-23T08:13:37;101172.69;;;15.68;100.00
65190;BME280;51777;53.570;9.984;2023-05-23T08:16:02;101174.66;;;15.58;100.00
65190;BME280;51777;53.570;9.984;2023-05-23T08:18:27;101184.13;;;15.51;100.00
65190;BME280;51777;53.570;9.984;2023-05-23T08:20:55;101176.78;;;15.63;100.00
65190;BME280;51777;53.570;9.984;2023-05-23T08:23:20;101179.88;;;15.66;100.00
65190;BME280;51777;53.570;9.984;2023-05-23T08:25:45;101196.44;;;15.81;100.00
65190;BME280;51777;53.570;9.984;2023-05-23T08:28:12;101197.75;;;15.77;100.00
65190;BME280;51777;53.570;9.984;2023-05-23T08:30:37;101203.19;;;16.07;100.00
65190;BME280;51777;53.570;9.984;2023-05-23T08:33:03;101204.38;;;15.96;100.00
65190;BME280;51777;53.570;9.984;2023-05-23T08:35:31;101201.00;;;15.88;100.00
65190;BME280;51777;53.570;9.984;2023-05-23T08:38:04;101215.53;;;15.57;100.00
65190;BME280;51777;53.570;9.984;2023-05-23T08:40:30;101222.06;;;15.45;100.00
65190;BME280;51777;53.570;9.984;2023-05-23T08:42:58;101221.44;;;15.35;100.00
65190;BME280;51777;53.570;9.984;2023-05-23T08:45:24;101227.94;;;15.47;100.00
65190;BME280;51777;53.570;9.984;2023-05-23T08:47:50;101223.25;;;15.26;100.00
65190;BME280;51777;53.570;9.984;2023-05-23T08:50:17;101217.22;;;15.02;100.00
65190;BME280;51777;53.570;9.984;2023-05-23T08:53:04;101217.22;;;14.77;100.00
65190;BME280;51777;53.570;9.984;2023-05-23T08:55:30;101230.69;;;14.73;100.00
65190;BME280;51777;53.570;9.984;2023-05-23T08:57:57;101230.06;;;14.79;100.00
65190;BME280;51777;53.570;9.984;2023-05-23T09:00:26;101233.66;;;14.78;100.00
65190;BME280;51777;53.570;9.984;2023-05-23T09:02:52;101240.81;;;14.84;100.00
65190;BME280;51777;53.570;9.984;2023-05-23T09:05:19;101240.81;;;14.84;100.00
65190;BME280;51777;53.570;9.984;2023-05-23T09:07:45;101233.97;;;14.83;100.00
65190;BME280;51777;53.570;9.984;2023-05-23T09:10:12;101253.16;;;14.82;100.00
65190;BME280;51777;53.570;9.984;2023-05-23T09:12:38;101255.75;;;14.74;100.00
65190;BME280;51777;53.570;9.984;2023-05-23T09:15:05;101259.97;;;14.66;100.00
65190;BME280;51777;53.570;9.984;2023-05-23T09:17:31;101270.41;;;14.32;100.00
65190;BME280;51777;53.570;9.984;2023-05-23T09:20:10;101266.28;;;14.22;100.00
65190;BME280;51777;53.570;9.984;2023-05-23T09:22:36;101268.72;;;14.23;100.00
65190;BME280;51777;53.570;9.984;2023-05-23T09:25:01;101273.72;;;14.08;100.00
65190;BME280;51777;53.570;9.984;2023-05-23T09:27:27;101280.59;;;14.18;100.00
65190;BME280;51777;53.570;9.984;2023-05-23T09:29:52;101290.22;;;13.91;100.00
65190;BME280;51777;53.570;9.984;2023-05-23T09:32:19;101290.22;;;13.91;100.00
65190;BME280;51777;53.570;9.984;2023-05-23T09:34:58;101295.41;;;13.91;100.00
65190;BME280;51777;53.570;9.984;2023-05-23T09:37:33;101299.47;;;13.94;100.00
65190;BME280;51777;53.570;9.984;2023-05-23T09:39:59;101302.25;;;14.00;100.00
65190;BME280;51777;53.570;9.984;2023-05-23T09:42:32;101290.06;;;13.93;100.00
65190;BME280;51777;53.570;9.984;2023-05-23T09:44:58;101300.31;;;13.76;100.00
65190;BME280;51777;53.570;9.984;2023-05-23T09:47:27;101297.63;;;13.86;100.00
65190;BME280;51777;53.570;9.984;2023-05-23T09:49:53;101311.00;;;13.91;100.00
65190;BME280;51777;53.570;9.984;2023-05-23T09:52:18;101316.13;;;13.83;100.00
65190;BME280;51777;53.570;9.984;2023-05-23T09:54:46;101310.44;;;13.79;100.00
65190;BME280;51777;53.570;9.984;2023-05-23T09:57:14;101316.53;;;13.96;100.00
65190;BME280;51777;53.570;9.984;2023-05-23T09:59:41;101315.22;;;13.92;100.00
65190;BME280;51777;53.570;9.984;2023-05-23T10:02:10;101312.06;;;13.80;100.00
65190;BME280;51777;53.570;9.984;2023-05-23T10:04:38;101318.75;;;13.83;100.00
65190;BME280;51777;53.570;9.984;2023-05-23T10:07:17;101322.06;;;13.93;100.00
65190;BME280;51777;53.570;9.984;2023-05-23T10:09:53;101322.72;;;13.95;100.00
65190;BME280;51777;53.570;9.984;2023-05-23T10:13:07;101331.97;;;13.90;100.00
65190;BME280;51777;53.570;9.984;2023-05-23T10:15:15;101330.53;;;13.95;100.00
65190;BME280;51777;53.570;9.984;2023-05-23T10:17:59;101330.81;;;13.92;100.00
65190;BME280;51777;53.570;9.984;2023-05-23T10:20:27;101353.50;;;13.82;100.00
65190;BME280;51777;53.570;9.984;2023-05-23T10:22:58;101340.84;;;13.87;100.00
65190;BME280;51777;53.570;9.984;2023-05-23T10:25:24;101348.16;;;13.84;100.00
65190;BME280;51777;53.570;9.984;2023-05-23T10:27:54;101353.16;;;14.03;100.00
65190;BME280;51777;53.570;9.984;2023-05-23T10:30:26;101361.31;;;14.08;100.00
65190;BME280;51777;53.570;9.984;2023-05-23T10:32:53;101365.63;;;13.99;100.00
65190;BME280;51777;53.570;9.984;2023-05-23T10:35:45;101368.91;;;14.01;100.00
65190;BME280;51777;53.570;9.984;2023-05-23T10:38:29;101373.44;;;13.99;100.00
65190;BME280;51777;53.570;9.984;2023-05-23T10:41:00;101378.91;;;14.14;100.00
65190;BME280;51777;53.570;9.984;2023-05-23T10:45:56;101386.00;;;14.04;100.00
65190;BME280;51777;53.570;9.984;2023-05-23T10:51:06;101391.50;;;14.27;100.00
65190;BME280;51777;53.570;9.984;2023-05-23T10:53:43;101405.91;;;14.39;100.00
65190;BME280;51777;53.570;9.984;2023-05-23T10:56:20;101403.41;;;14.37;100.00
65190;BME280;51777;53.570;9.984;2023-05-23T10:58:55;101393.38;;;14.43;100.00
65190;BME280;51777;53.570;9.984;2023-05-23T11:01:23;101398.44;;;14.18;100.00
65190;BME280;51777;53.570;9.984;2023-05-23T11:03:50;101409.09;;;14.07;100.00
65190;BME280;51777;53.570;9.984;2023-05-23T11:06:39;101417.41;;;14.36;100.00
65190;BME280;51777;53.570;9.984;2023-05-23T11:09:13;101418.44;;;14.69;100.00
65190;BME280;51777;53.570;9.984;2023-05-23T11:17:17;101430.66;;;15.78;100.00
65190;BME280;51777;53.570;9.984;2023-05-23T11:19:58;101429.00;;;15.69;100.00
65190;BME280;51777;53.570;9.984;2023-05-23T11:22:27;101430.97;;;15.67;100.00
65190;BME280;51777;53.570;9.984;2023-05-23T11:24:56;101429.59;;;15.46;100.00
65190;BME280;51777;53.570;9.984;2023-05-23T11:27:40;101420.53;;;16.79;100.00
65190;BME280;51777;53.570;9.984;2023-05-23T11:30:07;101446.38;;;17.05;100.00
65190;BME280;51777;53.570;9.984;2023-05-23T11:32:34;101423.91;;;17.27;100.00
65190;BME280;51777;53.570;9.984;2023-05-23T11:35:05;101444.25;;;17.40;100.00
65190;BME280;51777;53.570;9.984;2023-05-23T11:37:31;101435.59;;;17.08;100.00
65190;BME280;51777;53.570;9.984;2023-05-23T11:39:57;101445.19;;;17.16;100.00
65190;BME280;51777;53.570;9.984;2023-05-23T11:42:23;101456.94;;;17.51;100.00
65190;BME280;51777;53.570;9.984;2023-05-23T11:44:51;101450.66;;;17.37;100.00
65190;BME280;51777;53.570;9.984;2023-05-23T11:47:17;101452.72;;;17.11;100.00
65190;BME280;51777;53.570;9.984;2023-05-23T11:49:46;101459.16;;;17.00;100.00
65190;BME280;51777;53.570;9.984;2023-05-23T11:52:12;101460.38;;;16.81;100.00
65190;BME280;51777;53.570;9.984;2023-05-23T11:54:41;101470.59;;;17.30;100.00
65190;BME280;51777;53.570;9.984;2023-05-23T11:57:07;101472.31;;;17.77;100.00
65190;BME280;51777;53.570;9.984;2023-05-23T11:59:33;101477.75;;;18.13;100.00
65190;BME280;51777;53.570;9.984;2023-05-23T12:02:01;101472.94;;;18.02;100.00
65190;BME280;51777;53.570;9.984;2023-05-23T12:04:26;101459.34;;;17.83;100.00
65190;BME280;51777;53.570;9.984;2023-05-23T12:06:52;101466.13;;;17.70;100.00
65190;BME280;51777;53.570;9.984;2023-05-23T12:09:18;101472.22;;;17.62;100.00
65190;BME280;51777;53.570;9.984;2023-05-23T12:11:44;101471.63;;;18.20;100.00
65190;BME280;51777;53.570;9.984;2023-05-23T12:14:14;101480.25;;;18.44;100.00
65190;BME280;51777;53.570;9.984;2023-05-23T12:16:42;101489.06;;;19.10;100.00
65190;BME280;51777;53.570;9.984;2023-05-23T12:19:07;101479.59;;;18.42;100.00
65190;BME280;51777;53.570;9.984;2023-05-23T12:21:46;101485.94;;;19.72;100.00
65190;BME280;51777;53.570;9.984;2023-05-23T12:24:16;101491.22;;;20.00;100.00
65190;BME280;51777;53.570;9.984;2023-05-23T12:27:00;101490.78;;;19.75;100.00
65190;BME280;51777;53.570;9.984;2023-05-23T12:29:30;101473.75;;;20.70;100.00
65190;BME280;51777;53.570;9.984;2023-05-23T12:31:58;101499.66;;;21.21;100.00
65190;BME280;51777;53.570;9.984;2023-05-23T12:34:23;101495.78;;;19.91;100.00
65190;BME280;51777;53.570;9.984;2023-05-23T12:36:49;101493.50;;;19.31;100.00
65190;BME280;51777;53.570;9.984;2023-05-23T12:39:23;101499.09;;;18.77;100.00
65190;BME280;51777;53.570;9.984;2023-05-23T12:41:50;101523.53;;;19.79;100.00
65190;BME280;51777;53.570;9.984;2023-05-23T12:44:15;101507.56;;;18.94;100.00
65190;BME280;51777;53.570;9.984;2023-05-23T12:46:41;101497.19;;;18.86;100.00
65190;BME280;51777;53.570;9.984;2023-05-23T12:49:06;101501.44;;;18.87;100.00
65190;BME280;51777;53.570;9.984;2023-05-23T12:51:32;101503.75;;;18.52;100.00
65190;BME280;51777;53.570;9.984;2023-05-23T12:53:57;101506.75;;;18.26;100.00
65190;BME280;51777;53.570;9.984;2023-05-23T12:56:23;101508.97;;;18.52;100.00
65190;BME280;51777;53.570;9.984;2023-05-23T12:58:48;101513.63;;;18.80;100.00